General Aviation Weather

Text Reports

Enter one or more of the following location identifiers separated by a space:

Zip Code, Four-Character ICAO or Three-Character IATA airport codes.

METAR - Aviation Routine Weather Report
KDXR - Danbury, Connecticut
Updated at 8:53 AM GMT on March 27, 2015 (4:53 AM EDT):
METAR KDXR 270853Z AUTO 35006KT 7SM OVC031 03/00 A2972 RMK AO2 SLP067 T00280000 51015 PWINO $
TAF - Terminal Area Forecast
KDXR - Danbury, Connecticut
Updated at 8:53 AM GMT on March 27, 2015 (4:53 AM EDT):
No TAF is currently available for this location.
Decoded:
No decoded TAF is available.
PIREP - Pilot Weather Report
KDXR - Danbury, Connecticut
Updated at 8:53 AM GMT on March 27, 2015 (4:53 AM EDT):
No PIREP is currently available for this location.
AIRMET - Airmens Meteorological Information
KDXR - Danbury, Connecticut
Updated at 8:53 AM GMT on March 27, 2015 (4:53 AM EDT):
No AIRMET is currently available for this location.
SIGMET - Significant Meteorological Information
KDXR - Danbury, Connecticut
Updated at 8:53 AM GMT on March 27, 2015 (4:53 AM EDT):
No SIGMET is currently available for this location.
NOTAM - Notice to Airmen
KDXR - Danbury, Connecticut
Updated at 8:53 AM GMT on March 27, 2015 (4:53 AM EDT):
No NOTAM is currently available for this location.
Forecast Area
KDXR - Danbury, Connecticut
Updated at 8:53 AM GMT on March 27, 2015 (4:53 AM EDT):
No NOTAM is currently available for this location.
Aviation Weather Maps